createdAt,value
2018-07-12T00:00:24.814Z,101665.09
2018-07-12T00:02:51.986Z,101668.08
2018-07-12T00:05:19.233Z,101660.11
2018-07-12T00:07:46.417Z,101661.61
2018-07-12T00:10:13.619Z,101654.81
2018-07-12T00:12:40.826Z,101653.97
2018-07-12T00:15:08.007Z,101655.64
2018-07-12T00:17:36.154Z,101655.80
2018-07-12T00:20:03.323Z,101642.03
2018-07-12T00:22:30.517Z,101639.02
2018-07-12T00:24:58.905Z,101641.70
2018-07-12T00:27:26.389Z,101635.08
2018-07-12T00:29:53.557Z,101634.77
2018-07-12T00:32:20.753Z,101635.23
2018-07-12T00:34:47.930Z,101634.37
2018-07-12T00:37:15.130Z,101632.05
2018-07-12T00:39:43.233Z,101634.04
2018-07-12T00:42:10.437Z,101641.38
2018-07-12T00:44:37.631Z,101643.53
2018-07-12T00:47:04.842Z,101641.20
2018-07-12T00:49:32.015Z,101640.34
2018-07-12T00:51:59.218Z,101636.20
2018-07-12T00:54:26.387Z,101636.52
2018-07-12T00:56:53.581Z,101638.64
2018-07-12T00:59:20.765Z,101635.56
2018-07-12T01:01:48.010Z,101635.36
2018-07-12T01:04:16.088Z,101637.19
2018-07-12T01:06:43.269Z,101636.80
2018-07-12T01:09:10.473Z,101643.61
2018-07-12T01:11:37.647Z,101640.30
2018-07-12T01:14:05.805Z,101643.56
2018-07-12T01:16:33.005Z,101644.89
2018-07-12T01:19:00.209Z,101644.56
2018-07-12T01:21:27.395Z,101643.91
2018-07-12T01:23:54.596Z,101636.60
2018-07-12T01:26:21.762Z,101629.30
2018-07-12T01:28:48.993Z,101628.47
2018-07-12T01:31:16.170Z,101633.95
2018-07-12T01:33:44.346Z,101634.23
2018-07-12T01:36:11.628Z,101631.58
2018-07-12T01:38:38.753Z,101632.23
2018-07-12T01:41:06.092Z,101629.54
2018-07-12T01:43:33.489Z,101631.86
2018-07-12T01:46:00.686Z,101631.81
2018-07-12T01:48:27.994Z,101630.48
2018-07-12T01:50:55.243Z,101628.50
2018-07-12T01:53:22.457Z,101629.48
2018-07-12T01:55:50.521Z,101631.48
2018-07-12T01:58:17.742Z,101627.45
2018-07-12T02:00:45.249Z,101628.78
2018-07-12T02:03:12.489Z,101627.16
2018-07-12T02:05:39.662Z,101621.66
2018-07-12T02:08:06.840Z,101627.95
2018-07-12T02:10:34.046Z,101625.57
2018-07-12T02:13:01.310Z,101628.22
2018-07-12T02:15:30.701Z,101623.41
2018-07-12T02:17:57.940Z,101625.73
2018-07-12T02:20:25.178Z,101628.20
2018-07-12T02:22:52.639Z,101629.97
2018-07-12T02:25:19.838Z,101622.52
2018-07-12T02:27:47.014Z,101618.81
2018-07-12T02:30:14.224Z,101618.16
2018-07-12T02:32:41.402Z,101623.61
2018-07-12T02:35:08.653Z,101620.63
2018-07-12T02:37:35.794Z,101618.71
2018-07-12T02:40:02.997Z,101620.16
2018-07-12T02:42:30.170Z,101617.83
2018-07-12T02:44:58.326Z,101615.85
2018-07-12T02:47:25.616Z,101615.50
2018-07-12T02:49:52.830Z,101613.84
2018-07-12T02:52:20.006Z,101609.86
2018-07-12T02:54:47.206Z,101617.42
2018-07-12T02:57:14.381Z,101610.80
2018-07-12T02:59:41.562Z,101607.27
2018-07-12T03:02:08.757Z,101608.16
2018-07-12T03:04:35.941Z,101605.84
2018-07-12T03:07:03.149Z,101602.18
2018-07-12T03:09:30.322Z,101608.80
2018-07-12T03:11:58.513Z,101605.66
2018-07-12T03:14:25.695Z,101607.66
2018-07-12T03:16:52.906Z,101604.83
2018-07-12T03:19:20.078Z,101607.90
2018-07-12T03:21:47.288Z,101607.53
2018-07-12T03:24:14.459Z,101610.75
2018-07-12T03:26:41.662Z,101614.98
2018-07-12T03:29:08.829Z,101613.27
2018-07-12T03:31:37.976Z,101610.25
2018-07-12T03:34:05.153Z,101609.84
2018-07-12T03:36:32.349Z,101618.67
2018-07-12T03:38:59.527Z,101616.67
2018-07-12T03:41:26.726Z,101610.95
2018-07-12T03:43:53.897Z,101619.69
2018-07-12T03:46:22.094Z,101624.15
2018-07-12T03:48:49.297Z,101620.16
2018-07-12T03:51:16.517Z,101623.91
2018-07-12T03:53:43.693Z,101622.25
2018-07-12T03:56:10.861Z,101624.95
2018-07-12T03:58:38.063Z,101625.55
2018-07-12T04:01:05.231Z,101621.00
2018-07-12T04:03:32.432Z,101627.70
2018-07-12T04:05:59.614Z,101629.11
2018-07-12T04:08:26.809Z,101626.52
2018-07-12T04:10:54.030Z,101627.34
2018-07-12T04:13:21.193Z,101626.43
2018-07-12T04:15:48.373Z,101627.65
2018-07-12T04:18:15.569Z,101628.42
2018-07-12T04:20:42.737Z,101628.30
2018-07-12T04:23:09.945Z,101631.03
2018-07-12T04:25:37.116Z,101631.80
2018-07-12T04:28:04.316Z,101627.22
2018-07-12T04:30:31.485Z,101623.84
2018-07-12T04:32:58.682Z,101627.94
2018-07-12T04:35:26.806Z,101619.07
2018-07-12T04:37:54.005Z,101625.62
2018-07-12T04:40:21.181Z,101616.30
2018-07-12T04:42:48.380Z,101611.17
2018-07-12T04:45:15.554Z,101606.09
2018-07-12T04:47:42.717Z,101600.78
2018-07-12T04:50:10.849Z,101601.48
2018-07-12T04:52:38.030Z,101608.30
2018-07-12T04:55:05.233Z,101603.33
2018-07-12T04:57:32.410Z,101606.84
2018-07-12T05:00:00.603Z,101604.88
2018-07-12T05:02:27.805Z,101603.69
2018-07-12T05:04:55.998Z,101607.48
2018-07-12T05:07:23.173Z,101613.75
2018-07-12T05:09:50.365Z,101618.77
2018-07-12T05:12:17.543Z,101620.10
2018-07-12T05:14:44.737Z,101620.78
2018-07-12T05:17:11.905Z,101621.73
2018-07-12T05:19:39.114Z,101620.02
2018-07-12T05:22:06.300Z,101620.98
2018-07-12T05:24:33.489Z,101624.62
2018-07-12T05:27:00.669Z,101625.95
2018-07-12T05:29:27.877Z,101635.56
2018-07-12T05:31:56.050Z,101630.48
2018-07-12T05:34:23.257Z,101629.19
2018-07-12T05:36:56.913Z,101632.12
2018-07-12T05:39:25.374Z,101635.75
2018-07-12T05:41:53.585Z,101632.08
2018-07-12T05:44:21.849Z,101637.92
2018-07-12T05:46:50.663Z,101635.30
2018-07-12T05:49:19.128Z,101631.02
2018-07-12T05:51:49.465Z,101642.24
2018-07-12T05:54:19.761Z,101642.49
2018-07-12T05:56:48.245Z,101645.09
2018-07-12T05:59:16.813Z,101642.56
2018-07-12T06:01:56.509Z,101639.26
2018-07-12T06:04:24.781Z,101638.88
2018-07-12T06:06:53.090Z,101640.71
2018-07-12T06:09:21.411Z,101646.75
2018-07-12T06:11:49.727Z,101638.43
2018-07-12T06:14:18.009Z,101638.84
2018-07-12T06:16:46.304Z,101639.89
2018-07-12T06:19:14.587Z,101637.30
2018-07-12T06:21:42.962Z,101636.89
2018-07-12T06:24:11.245Z,101642.77
2018-07-12T06:26:39.557Z,101651.94
2018-07-12T06:29:07.870Z,101652.30
2018-07-12T06:31:36.191Z,101655.09
2018-07-12T06:34:04.509Z,101653.87
2018-07-12T06:36:32.833Z,101662.81
2018-07-12T06:39:01.119Z,101663.87
2018-07-12T06:41:29.529Z,101656.95
2018-07-12T06:43:57.806Z,101668.42
2018-07-12T06:46:26.125Z,101668.00
2018-07-12T06:48:54.406Z,101666.72
2018-07-12T06:51:22.745Z,101664.27
2018-07-12T06:53:50.984Z,101655.81
2018-07-12T06:56:19.337Z,101664.94
2018-07-12T06:58:47.689Z,101666.27
2018-07-12T07:01:17.037Z,101662.45
2018-07-12T07:03:45.391Z,101667.74
2018-07-12T07:06:13.786Z,101656.16
2018-07-12T07:08:42.106Z,101662.33
2018-07-12T07:11:10.421Z,101655.91
2018-07-12T07:13:38.987Z,101657.64
2018-07-12T07:16:07.924Z,101667.05
2018-07-12T07:18:36.245Z,101660.31
2018-07-12T07:21:05.586Z,101657.45
2018-07-12T07:23:33.894Z,101655.42
2018-07-12T07:26:02.162Z,101656.52
2018-07-12T07:28:31.650Z,101654.98
2018-07-12T07:30:59.934Z,101657.84
2018-07-12T07:33:28.234Z,101659.78
2018-07-12T07:35:56.593Z,101660.21
2018-07-12T07:38:26.002Z,101662.64
2018-07-12T07:40:54.310Z,101661.97
2018-07-12T07:43:22.971Z,101656.73
2018-07-12T07:45:51.217Z,101662.80
2018-07-12T07:48:19.761Z,101657.84
2018-07-12T07:50:48.061Z,101660.36
2018-07-12T07:53:16.357Z,101662.64
2018-07-12T07:55:44.699Z,101653.44
2018-07-12T07:58:12.978Z,101661.20
2018-07-12T08:00:41.301Z,101646.50
2018-07-12T08:03:09.634Z,101646.30
2018-07-12T08:05:37.947Z,101649.63
2018-07-12T08:08:06.469Z,101648.91
2018-07-12T08:10:34.783Z,101647.02
2018-07-12T08:13:03.091Z,101647.08
2018-07-12T08:15:31.402Z,101643.55
2018-07-12T08:17:59.697Z,101643.16
2018-07-12T08:20:28.031Z,101645.69
2018-07-12T08:22:56.316Z,101640.41
2018-07-12T08:25:24.623Z,101641.25
2018-07-12T08:28:04.017Z,101642.88
2018-07-12T08:30:32.339Z,101635.15
2018-07-12T08:33:00.733Z,101640.09
2018-07-12T08:35:29.150Z,101636.55
2018-07-12T08:37:57.425Z,101635.55
2018-07-12T08:40:25.844Z,101624.16
2018-07-12T08:42:54.270Z,101621.77
2018-07-12T08:45:22.619Z,101624.77
2018-07-12T08:47:50.897Z,101626.84
2018-07-12T08:50:19.261Z,101624.62
2018-07-12T08:52:47.563Z,101621.17
2018-07-12T08:55:15.844Z,101622.09
2018-07-12T08:57:44.206Z,101615.95
2018-07-12T09:00:12.526Z,101611.84
2018-07-12T09:02:41.098Z,101618.97
2018-07-12T09:05:09.371Z,101624.05
2018-07-12T09:07:37.694Z,101624.31
2018-07-12T09:10:06.096Z,101625.25
2018-07-12T09:12:34.425Z,101632.00
2018-07-12T09:15:02.727Z,101636.33
2018-07-12T09:17:31.025Z,101636.36
2018-07-12T09:19:59.321Z,101636.95
2018-07-12T09:22:27.654Z,101637.98
2018-07-12T09:24:55.925Z,101629.58
2018-07-12T09:27:25.277Z,101634.49
2018-07-12T09:29:53.543Z,101629.69
2018-07-12T09:32:22.838Z,101634.69
2018-07-12T09:37:41.903Z,101626.94
2018-07-12T09:43:00.695Z,101630.59
2018-07-12T09:45:28.943Z,101626.94
2018-07-12T09:47:57.249Z,101627.28
2018-07-12T09:50:25.654Z,101629.19
2018-07-12T09:52:53.984Z,101627.17
2018-07-12T09:55:22.286Z,101624.27
2018-07-12T09:58:01.999Z,101623.28
2018-07-12T10:00:35.719Z,101622.45
2018-07-12T10:03:20.975Z,101620.58
2018-07-12T10:05:55.593Z,101620.92
2018-07-12T10:08:29.093Z,101623.16
2018-07-12T10:11:02.521Z,101631.83
2018-07-12T10:13:36.252Z,101626.21
2018-07-12T10:16:08.704Z,101627.55
2018-07-12T10:18:36.977Z,101626.95
2018-07-12T10:21:05.241Z,101620.42
2018-07-12T10:23:33.554Z,101624.02
2018-07-12T10:26:02.926Z,101612.39
2018-07-12T10:28:31.274Z,101625.88
2018-07-12T10:30:59.561Z,101618.33
2018-07-12T10:33:27.821Z,101620.78
2018-07-12T10:35:56.109Z,101616.39
2018-07-12T10:38:24.477Z,101621.88
2018-07-12T10:40:52.811Z,101617.55
2018-07-12T10:43:21.141Z,101617.48
2018-07-12T10:45:50.477Z,101622.48
2018-07-12T10:48:18.729Z,101626.28
2018-07-12T10:50:47.041Z,101614.45
2018-07-12T10:53:15.299Z,101614.58
2018-07-12T10:55:43.667Z,101614.20
2018-07-12T10:58:12.052Z,101618.72
2018-07-12T11:00:40.352Z,101617.20
2018-07-12T11:03:08.659Z,101625.38
2018-07-12T11:05:36.989Z,101618.92
2018-07-12T11:08:05.546Z,101619.84
2018-07-12T11:10:33.925Z,101615.16
2018-07-12T11:13:12.672Z,101615.70
2018-07-12T11:15:40.961Z,101616.50
2018-07-12T11:18:09.266Z,101616.48
2018-07-12T11:20:37.557Z,101616.48
2018-07-12T11:23:06.066Z,101613.77
2018-07-12T11:25:35.368Z,101608.84
2018-07-12T11:28:04.098Z,101605.41
2018-07-12T11:30:32.670Z,101616.98
2018-07-12T11:33:02.214Z,101615.80
2018-07-12T11:35:30.589Z,101614.61
2018-07-12T11:37:58.873Z,101613.78
2018-07-12T11:40:27.117Z,101614.70
2018-07-12T11:42:55.401Z,101612.02
2018-07-12T11:45:23.638Z,101614.16
2018-07-12T11:47:51.905Z,101614.64
2018-07-12T11:50:20.165Z,101602.77
2018-07-12T11:52:48.505Z,101602.46
2018-07-12T11:55:20.789Z,101601.12
2018-07-12T11:57:49.078Z,101605.98
2018-07-12T12:00:17.333Z,101601.42
2018-07-12T12:02:45.609Z,101602.54
2018-07-12T12:05:13.873Z,101598.36
2018-07-12T12:07:42.157Z,101598.28
2018-07-12T12:10:10.435Z,101594.45
2018-07-12T12:12:38.748Z,101592.57
2018-07-12T12:15:07.000Z,101591.18
2018-07-12T12:17:35.296Z,101601.99
2018-07-12T12:20:03.605Z,101603.46
2018-07-12T12:22:31.854Z,101596.54
2018-07-12T12:25:00.160Z,101599.34
2018-07-12T12:27:28.415Z,101596.86
2018-07-12T12:29:56.789Z,101602.77
2018-07-12T12:32:25.069Z,101591.61
2018-07-12T12:34:53.377Z,101591.27
2018-07-12T12:37:21.681Z,101591.06
2018-07-12T12:39:49.988Z,101590.55
2018-07-12T12:42:18.233Z,101592.99
2018-07-12T12:44:46.514Z,101578.52
2018-07-12T12:47:14.793Z,101582.27
2018-07-12T12:49:43.077Z,101575.73
2018-07-12T12:52:12.921Z,101576.58
2018-07-12T12:54:41.293Z,101579.92
2018-07-12T12:57:09.600Z,101583.34
2018-07-12T12:59:37.998Z,101578.14
2018-07-12T13:02:07.284Z,101582.84
2018-07-12T13:04:35.577Z,101577.99
2018-07-12T13:07:03.897Z,101578.59
2018-07-12T13:09:32.240Z,101578.38
2018-07-12T13:12:00.557Z,101580.73
2018-07-12T13:14:28.893Z,101574.67
2018-07-12T13:16:57.140Z,101580.48
2018-07-12T13:19:26.540Z,101576.99
2018-07-12T13:21:58.826Z,101580.23
2018-07-12T13:24:27.081Z,101577.44
2018-07-12T13:26:55.378Z,101578.49
2018-07-12T13:29:27.282Z,101570.31
2018-07-12T13:31:55.630Z,101573.24
2018-07-12T13:34:23.924Z,101568.00
2018-07-12T13:36:53.261Z,101571.52
2018-07-12T13:39:21.521Z,101570.16
2018-07-12T13:41:49.880Z,101564.63
2018-07-12T13:44:21.367Z,101566.30
2018-07-12T13:46:50.940Z,101561.05
2018-07-12T13:49:19.157Z,101557.21
2018-07-12T13:51:49.497Z,101554.41
2018-07-12T13:54:18.486Z,101548.73
2018-07-12T13:56:47.277Z,101553.98
2018-07-12T13:59:15.549Z,101553.45
2018-07-12T14:01:43.866Z,101541.86
2018-07-12T14:04:12.593Z,101549.47
2018-07-12T14:06:40.921Z,101537.43
2018-07-12T14:09:11.086Z,101538.99
2018-07-12T14:11:39.705Z,101551.92
2018-07-12T14:14:08.605Z,101560.69
2018-07-12T14:16:37.966Z,101552.11
2018-07-12T14:19:06.379Z,101554.94
2018-07-12T14:21:34.642Z,101547.34
2018-07-12T14:24:02.936Z,101554.03
2018-07-12T14:26:31.237Z,101553.97
2018-07-12T14:28:59.634Z,101550.17
2018-07-12T14:31:27.893Z,101545.87
2018-07-12T14:33:57.301Z,101543.69
2018-07-12T14:36:25.569Z,101543.14
2018-07-12T14:38:53.873Z,101542.58
2018-07-12T14:41:22.153Z,101548.26
2018-07-12T14:43:50.714Z,101537.44
2018-07-12T14:46:18.973Z,101543.53
2018-07-12T14:48:47.268Z,101548.80
2018-07-12T14:51:17.625Z,101546.55
2018-07-12T14:53:45.936Z,101537.02
2018-07-12T14:56:14.213Z,101533.18
2018-07-12T14:58:42.666Z,101539.50
2018-07-12T15:01:10.933Z,101539.50
2018-07-12T15:03:40.529Z,101531.61
2018-07-12T15:06:08.799Z,101536.20
2018-07-12T15:08:37.061Z,101529.14
2018-07-12T15:11:05.393Z,101529.30
2018-07-12T15:13:33.785Z,101533.47
2018-07-12T15:16:03.157Z,101531.52
2018-07-12T15:18:31.455Z,101539.52
2018-07-12T15:21:00.846Z,101540.30
2018-07-12T15:23:29.117Z,101528.63
2018-07-12T15:25:57.516Z,101538.63
2018-07-12T15:28:25.803Z,101528.27
2018-07-12T15:30:54.131Z,101531.71
2018-07-12T15:33:22.417Z,101547.48
2018-07-12T15:35:50.709Z,101529.76
2018-07-12T15:38:18.961Z,101524.41
2018-07-12T15:40:48.385Z,101522.84
2018-07-12T15:43:16.641Z,101523.54
2018-07-12T15:45:45.021Z,101524.03
2018-07-12T15:48:13.289Z,101521.13
2018-07-12T15:50:42.605Z,101533.67
2018-07-12T15:53:10.987Z,101528.87
2018-07-12T15:55:39.216Z,101536.01
2018-07-12T15:58:07.506Z,101539.49
2018-07-12T16:00:36.821Z,101530.91
2018-07-12T16:03:05.090Z,101538.78
2018-07-12T16:05:34.353Z,101533.69
2018-07-12T16:08:02.643Z,101529.09
2018-07-12T16:10:30.903Z,101531.70
2018-07-12T16:12:59.205Z,101534.90
2018-07-12T16:15:27.485Z,101538.13
2018-07-12T16:17:55.795Z,101538.33
2018-07-12T16:20:24.134Z,101550.89
2018-07-12T16:22:52.481Z,101541.89
2018-07-12T16:25:20.989Z,101542.23
2018-07-12T16:27:53.076Z,101544.60
2018-07-12T16:30:23.376Z,101534.50
2018-07-12T16:32:51.658Z,101523.85
2018-07-12T16:35:19.908Z,101532.65
2018-07-12T16:37:48.217Z,101541.19
2018-07-12T16:40:16.574Z,101540.59
2018-07-12T16:42:44.854Z,101538.17
2018-07-12T16:45:13.368Z,101534.55
2018-07-12T16:47:41.705Z,101533.11
2018-07-12T16:50:09.977Z,101527.51
2018-07-12T16:52:38.272Z,101539.81
2018-07-12T16:55:06.544Z,101543.23
2018-07-12T16:57:34.857Z,101536.29
2018-07-12T17:00:03.298Z,101536.66
2018-07-12T17:02:31.555Z,101537.88
2018-07-12T17:04:59.861Z,101537.14
2018-07-12T17:07:28.137Z,101545.73
2018-07-12T17:09:56.476Z,101543.69
2018-07-12T17:12:24.741Z,101545.27
2018-07-12T17:14:53.086Z,101550.76
2018-07-12T17:17:21.341Z,101545.13
2018-07-12T17:19:49.710Z,101538.94
2018-07-12T17:22:18.017Z,101549.70
2018-07-12T17:24:47.314Z,101550.28
2018-07-12T17:27:15.576Z,101546.85
2018-07-12T17:29:43.852Z,101548.50
2018-07-12T17:32:12.209Z,101549.59
2018-07-12T17:34:40.498Z,101568.13
2018-07-12T17:37:08.761Z,101562.72
2018-07-12T17:39:37.058Z,101568.13
2018-07-12T17:42:05.312Z,101568.59
2018-07-12T17:44:33.605Z,101571.67
2018-07-12T17:47:03.915Z,101576.19
2018-07-12T17:49:32.232Z,101573.67
2018-07-12T17:52:00.522Z,101589.19
2018-07-12T17:54:28.794Z,101585.55
2018-07-12T17:56:57.065Z,101594.81
2018-07-12T17:59:25.317Z,101589.52
2018-07-12T18:01:53.586Z,101591.55
2018-07-12T18:04:21.886Z,101596.90
2018-07-12T18:06:50.161Z,101592.19
2018-07-12T18:09:18.405Z,101587.75
2018-07-12T18:11:47.829Z,101593.22
2018-07-12T18:14:16.136Z,101592.85
2018-07-12T18:16:44.395Z,101599.84
2018-07-12T18:19:12.840Z,101602.05
2018-07-12T18:21:41.126Z,101586.25
2018-07-12T18:24:10.454Z,101596.16
2018-07-12T18:26:38.763Z,101596.14
2018-07-12T18:29:07.019Z,101599.84
2018-07-12T18:31:35.320Z,101604.77
2018-07-12T18:34:03.629Z,101612.19
2018-07-12T18:36:31.985Z,101611.95
2018-07-12T18:39:00.237Z,101611.05
2018-07-12T18:41:28.545Z,101621.63
2018-07-12T18:43:56.833Z,101624.47
2018-07-12T18:46:25.089Z,101619.63
2018-07-12T18:48:53.409Z,101624.96
2018-07-12T18:51:21.727Z,101626.26
2018-07-12T18:53:51.028Z,101631.78
2018-07-12T18:56:19.313Z,101632.23
2018-07-12T18:58:47.598Z,101635.46
2018-07-12T19:01:15.907Z,101638.31
2018-07-12T19:03:45.466Z,101637.74
2018-07-12T19:06:13.749Z,101635.59
2018-07-12T19:08:47.842Z,101643.16
2018-07-12T19:11:16.205Z,101641.19
2018-07-12T19:13:44.808Z,101638.66
2018-07-12T19:16:13.127Z,101646.53
2018-07-12T19:18:42.466Z,101654.09
2018-07-12T19:21:10.738Z,101661.63
2018-07-12T19:23:39.039Z,101661.36
2018-07-12T19:26:07.297Z,101668.55
2018-07-12T19:28:35.596Z,101677.98
2018-07-12T19:31:04.058Z,101681.25
2018-07-12T19:33:34.524Z,101678.08
2018-07-12T19:36:02.854Z,101689.81
2018-07-12T19:38:31.421Z,101686.88
2018-07-12T19:41:01.042Z,101696.84
2018-07-12T19:43:29.300Z,101697.61
2018-07-12T19:45:57.577Z,101700.02
2018-07-12T19:48:25.838Z,101701.47
2018-07-12T19:50:55.261Z,101712.00
2018-07-12T19:53:23.537Z,101714.52
2018-07-12T19:55:51.817Z,101721.23
2018-07-12T19:58:20.066Z,101716.23
2018-07-12T20:00:48.336Z,101721.18
2018-07-12T20:03:17.661Z,101720.41
2018-07-12T20:05:45.941Z,101724.45
2018-07-12T20:08:14.308Z,101723.48
2018-07-12T20:10:42.590Z,101725.63
2018-07-12T20:13:10.879Z,101715.50
2018-07-12T20:15:39.253Z,101711.02
2018-07-12T20:18:07.673Z,101724.52
2018-07-12T20:20:38.154Z,101721.16
2018-07-12T20:23:06.424Z,101721.84
2018-07-12T20:25:34.721Z,101730.16
2018-07-12T20:28:03.061Z,101731.94
2018-07-12T20:30:31.614Z,101734.09
2018-07-12T20:33:00.965Z,101734.02
2018-07-12T20:35:29.265Z,101738.14
2018-07-12T20:37:57.542Z,101743.09
2018-07-12T20:40:25.813Z,101742.66
2018-07-12T20:42:54.074Z,101739.55
2018-07-12T20:45:22.394Z,101744.95
2018-07-12T20:47:51.737Z,101744.20
2018-07-12T20:50:20.059Z,101745.53
2018-07-12T20:52:48.405Z,101748.69
2018-07-12T20:55:16.707Z,101742.79
2018-07-12T20:57:45.993Z,101747.41
2018-07-12T21:00:14.261Z,101749.83
2018-07-12T21:02:42.565Z,101755.63
2018-07-12T21:05:10.860Z,101754.30
2018-07-12T21:07:39.206Z,101758.40
2018-07-12T21:10:07.808Z,101759.83
2018-07-12T21:12:36.100Z,101774.03
2018-07-12T21:15:04.501Z,101756.98
2018-07-12T21:17:32.798Z,101765.84
2018-07-12T21:20:01.072Z,101769.31
2018-07-12T21:22:29.356Z,101770.68
2018-07-12T21:24:57.629Z,101774.34
2018-07-12T21:27:25.925Z,101771.67
2018-07-12T21:29:54.178Z,101776.47
2018-07-12T21:32:22.487Z,101774.11
2018-07-12T21:34:50.749Z,101779.02
2018-07-12T21:37:19.005Z,101782.83
2018-07-12T21:39:47.296Z,101782.35
2018-07-12T21:42:15.593Z,101776.59
2018-07-12T21:44:43.869Z,101784.89
2018-07-12T21:47:12.148Z,101782.56
2018-07-12T21:49:40.417Z,101782.82
2018-07-12T21:52:08.717Z,101783.47
2018-07-12T21:54:38.068Z,101786.15
2018-07-12T21:57:06.349Z,101788.87
2018-07-12T21:59:35.649Z,101781.62
2018-07-12T22:02:04.014Z,101785.67
2018-07-12T22:04:33.437Z,101779.16
2018-07-12T22:08:18.527Z,101781.80
2018-07-12T22:10:47.869Z,101776.22
2018-07-12T22:13:16.840Z,101782.11
2018-07-12T22:15:45.154Z,101781.46
2018-07-12T22:18:13.525Z,101781.05
2018-07-12T22:20:41.845Z,101781.48
2018-07-12T22:23:10.084Z,101779.55
2018-07-12T22:25:38.496Z,101778.14
2018-07-12T22:28:06.969Z,101782.83
2018-07-12T22:30:35.465Z,101784.83
2018-07-12T22:33:04.252Z,101779.28
2018-07-12T22:35:32.537Z,101790.27
2018-07-12T22:38:01.829Z,101798.20
2018-07-12T22:40:30.341Z,101792.48
2018-07-12T22:42:58.793Z,101788.17
2018-07-12T22:45:27.117Z,101794.36
2018-07-12T22:47:57.053Z,101790.24
2018-07-12T22:50:26.431Z,101789.36
2018-07-12T22:52:54.749Z,101792.20
2018-07-12T22:55:23.142Z,101785.83
2018-07-12T22:57:51.412Z,101781.72
2018-07-12T23:00:19.659Z,101785.39
2018-07-12T23:02:47.938Z,101786.02
2018-07-12T23:05:17.363Z,101789.84
2018-07-12T23:07:45.638Z,101795.47
2018-07-12T23:10:13.894Z,101792.19
2018-07-12T23:12:42.389Z,101788.77
2018-07-12T23:15:10.673Z,101785.23
2018-07-12T23:17:38.954Z,101783.28
2018-07-12T23:20:07.235Z,101781.72
2018-07-12T23:22:35.554Z,101780.73
2018-07-12T23:25:05.905Z,101791.07
2018-07-12T23:27:34.222Z,101787.34
2018-07-12T23:30:03.626Z,101790.19
2018-07-12T23:32:31.911Z,101788.58
2018-07-12T23:35:00.210Z,101786.51
2018-07-12T23:37:29.565Z,101787.50
2018-07-12T23:39:57.884Z,101785.67
2018-07-12T23:42:26.165Z,101778.63
2018-07-12T23:44:54.473Z,101774.23
2018-07-12T23:47:22.769Z,101778.82
2018-07-12T23:49:51.063Z,101775.51
2018-07-12T23:52:19.340Z,101780.02
2018-07-12T23:54:47.625Z,101776.14
2018-07-12T23:57:15.878Z,101775.16
2018-07-12T23:59:44.210Z,101771.20
